Time;durP1;ratioP1;P1;durP2;ratioP2;P2;SDS_P1;SDS_P2;PMS_P1;PMS_P2;Temp;Humidity;BMP_temperature;BMP_pressure;BME280_temperature;BME280_humidity;BME280_pressure;Samples;Min_cycle;Max_cycle;Signal;HPM_P1;HPM_P2
2022/02/19 00:00:23;;;;;;;7.07;1.25;;;7.00;99.90;;;5.13;86.13;98214.22;4876946;28;20034;-87
2022/02/19 00:03:02;;;;;;;7.25;0.98;;;;;;;5.22;85.41;98204.13;4938172;28;20530;-87
2022/02/19 00:05:38;;;;;;;5.10;1.10;;;6.70;99.90;;;5.27;83.63;98191.59;4867336;28;20043;-82
2022/02/19 00:08:05;;;;;;;14.48;1.63;;;6.80;99.90;;;5.35;81.69;98198.00;4854995;28;20034;-83
2022/02/19 00:10:40;;;;;;;7.57;1.15;;;6.80;99.90;;;5.38;81.49;98217.00;4830720;28;20060;-82
2022/02/19 00:13:06;;;;;;;8.95;1.40;;;6.90;99.90;;;5.39;80.18;98203.88;4877382;28;20031;-83
2022/02/19 00:15:33;;;;;;;11.23;1.50;;;6.90;99.90;;;5.41;79.76;98217.66;4878325;28;20082;-82
2022/02/19 00:18:11;;;;;;;12.35;1.10;;;7.00;99.90;;;5.44;79.92;98214.84;4876556;28;22682;-83
2022/02/19 00:20:37;;;;;;;5.40;1.17;;;7.00;99.90;;;5.49;79.64;98219.78;4862182;28;20031;-84
2022/02/19 00:23:03;;;;;;;8.57;1.38;;;7.00;99.90;;;5.47;79.15;98232.09;4859855;28;20480;-81
2022/02/19 00:25:38;;;;;;;11.38;1.75;;;7.00;99.90;;;5.49;78.72;98228.44;4861266;28;20051;-82
2022/02/19 00:28:04;;;;;;;7.93;1.08;;;7.10;99.90;;;5.52;78.72;98232.59;4846327;28;20046;-83
2022/02/19 00:30:30;;;;;;;8.20;1.23;;;7.10;99.90;;;5.51;79.31;98223.13;4833897;28;20043;-82
2022/02/19 00:33:05;;;;;;;8.55;1.15;;;7.00;99.90;;;5.48;79.62;98231.97;4844695;28;20295;-83
2022/02/19 00:35:31;;;;;;;6.68;1.30;;;7.00;99.90;;;5.46;79.86;98267.75;4837029;28;20050;-82
2022/02/19 00:37:57;;;;;;;10.70;1.92;;;7.00;99.90;;;5.40;80.32;98251.66;4851992;28;20047;-83
2022/02/19 00:40:23;;;;;;;6.65;1.85;;;;;;;5.37;80.92;98237.06;4845010;28;20028;-84
2022/02/19 00:42:58;;;;;;;12.25;1.40;;;6.90;99.90;;;5.26;81.40;98242.13;4843175;28;20084;-82
2022/02/19 00:45:24;;;;;;;7.22;1.40;;;6.90;99.90;;;5.17;82.70;98227.91;4848499;29;20051;-82
2022/02/19 00:47:50;;;;;;;8.13;1.30;;;6.80;99.90;;;5.15;83.06;98255.88;4840463;28;20127;-83
2022/02/19 00:50:39;;;;;;;14.65;1.92;;;6.80;99.90;;;5.12;83.44;98253.47;4875615;28;20035;-82
2022/02/19 00:53:05;;;;;;;13.13;1.48;;;6.70;99.90;;;5.06;84.11;98249.47;4861448;28;20031;-81
2022/02/19 00:55:31;;;;;;;15.18;1.70;;;6.70;99.90;;;5.04;84.07;98235.69;4846834;28;20047;-82
2022/02/19 00:57:57;;;;;;;10.82;1.67;;;6.70;99.90;;;5.00;84.16;98221.16;4865623;28;20043;-83
2022/02/19 01:00:23;;;;;;;12.20;1.52;;;6.70;99.90;;;4.99;83.73;98240.38;4845665;28;20066;-81
2022/02/19 01:02:55;;;;;;;5.80;1.40;;;;;;;5.05;83.16;98232.13;4840145;28;20687;-84
2022/02/19 01:05:20;;;;;;;10.63;1.77;;;6.70;99.90;;;5.05;82.78;98237.34;4877264;28;20118;-83
2022/02/19 01:07:47;;;;;;;15.23;1.55;;;;;;;5.05;82.60;98237.34;4862956;28;20147;-82
2022/02/19 01:10:13;;;;;;;9.88;1.60;;;6.70;99.90;;;5.07;82.56;98234.66;4849461;28;20031;-83
2022/02/19 01:12:39;;;;;;;6.78;1.20;;;;;;;5.04;82.77;98248.72;4879297;28;20055;-83
2022/02/19 01:15:11;;;;;;;12.00;1.35;;;6.70;99.90;;;5.04;82.43;98225.25;4859452;28;20034;-83
2022/02/19 01:17:40;;;;;;;14.65;1.80;;;6.60;99.90;;;5.03;81.88;98218.38;4856273;28;20403;-83
2022/02/19 01:20:18;;;;;;;10.82;1.48;;;6.60;99.90;;;5.02;81.60;98231.50;4894941;28;20042;-82
2022/02/19 01:22:45;;;;;;;16.38;1.67;;;6.60;99.90;;;4.97;81.77;98223.97;4906194;28;20047;-84
2022/02/19 01:25:21;;;;;;;9.27;1.67;;;6.60;99.90;;;5.01;81.14;98207.19;4861587;28;20038;-82
2022/02/19 01:27:47;;;;;;;7.00;1.23;;;6.60;99.90;;;5.01;81.21;98222.84;4857055;28;20103;-83
2022/02/19 01:30:13;;;;;;;15.98;1.80;;;6.60;99.90;;;5.02;80.67;98206.25;4851315;28;20515;-82
2022/02/19 01:32:39;;;;;;;8.25;1.40;;;6.60;99.90;;;5.08;80.47;98212.84;4853563;28;20032;-83
2022/02/19 01:35:13;;;;;;;15.35;1.60;;;6.70;99.90;;;5.13;79.41;98219.44;4826330;28;20579;-84
2022/02/19 01:37:40;;;;;;;12.32;1.45;;;6.70;99.90;;;5.18;78.94;98231.34;4858169;28;20142;-83
2022/02/19 01:40:07;;;;;;;8.93;1.50;;;6.70;99.90;;;5.24;77.64;98233.56;4839174;28;20069;-83
2022/02/19 01:42:42;;;;;;;10.60;1.30;;;6.80;99.90;;;5.28;77.10;98229.81;4850410;28;20038;-81
2022/02/19 01:45:17;;;;;;;6.55;1.13;;;6.80;99.90;;;5.35;76.23;98233.69;4843204;28;20027;-81
2022/02/19 01:47:43;;;;;;;8.97;1.33;;;6.90;99.90;;;5.39;75.80;98236.97;4837961;28;20030;-83
2022/02/19 01:50:10;;;;;;;13.02;1.35;;;6.90;99.90;;;5.37;75.79;98252.72;4837743;28;20274;-82
2022/02/19 01:52:50;;;;;;;9.10;1.17;;;7.00;99.90;;;5.37;75.85;98257.94;4850725;28;20507;-81
2022/02/19 01:55:16;;;;;;;15.38;1.33;;;6.90;99.90;;;5.33;76.56;98240.78;4843180;28;20091;-83
2022/02/19 01:57:43;;;;;;;9.32;1.98;;;6.90;99.90;;;5.30;75.86;98246.22;4837749;28;20043;-82
2022/02/19 02:00:18;;;;;;;7.18;1.10;;;6.90;99.90;;;5.27;76.25;98247.25;4844750;28;20027;-83
2022/02/19 02:02:44;;;;;;;14.48;1.90;;;6.80;99.90;;;5.22;76.55;98232.81;4855238;28;20930;-81
2022/02/19 02:05:10;;;;;;;12.90;1.40;;;6.80;99.90;;;5.23;76.27;98239.72;4852491;28;20030;-80
2022/02/19 02:07:45;;;;;;;9.02;1.25;;;6.80;99.90;;;5.23;76.00;98242.34;4858383;28;20122;-81
2022/02/19 02:10:11;;;;;;;14.27;1.90;;;6.80;99.90;;;5.23;76.07;98252.78;4841451;29;20037;-82
2022/02/19 02:12:37;;;;;;;7.00;1.40;;;6.80;99.90;;;5.21;76.86;98247.66;4867830;28;20109;-83
2022/02/19 02:15:03;;;;;;;16.17;1.60;;;6.80;99.90;;;5.21;76.76;98236.38;4855185;28;22474;-82
2022/02/19 02:17:33;;;;;;;9.40;1.42;;;;;;;5.23;76.74;98239.72;4837610;28;20036;-81
2022/02/19 02:19:59;;;;;;;8.70;1.23;;;6.80;99.90;;;5.21;76.85;98239.00;4860585;28;20088;-81
2022/02/19 02:22:24;;;;;;;12.88;3.17;;;6.80;99.90;;;5.22;76.89;98248.47;4860249;28;20205;-83
2022/02/19 02:24:51;;;;;;;12.93;1.48;;;6.80;99.90;;;5.24;76.45;98229.19;4837657;28;20437;-82
2022/02/19 02:27:17;;;;;;;11.98;1.25;;;6.80;99.90;;;5.25;76.37;98227.44;4852797;28;20042;-82
2022/02/19 02:29:52;;;;;;;13.18;1.33;;;6.80;99.90;;;5.25;76.51;98245.69;4824556;28;20034;-84
2022/02/19 02:32:18;;;;;;;6.10;1.38;;;6.80;99.90;;;5.22;76.66;98233.66;4864976;28;20040;-82
2022/02/19 02:35:03;;;;;;;10.95;1.73;;;6.80;99.90;;;5.26;76.08;98249.97;4849997;28;20802;-83
2022/02/19 02:37:38;;;;;;;9.80;1.42;;;6.80;99.90;;;5.28;76.13;98230.66;4852289;28;20062;-82
2022/02/19 02:40:06;;;;;;;12.07;1.70;;;6.90;99.90;;;5.34;75.94;98232.03;4856837;28;20100;-83
2022/02/19 02:42:41;;;;;;;8.60;1.92;;;6.90;99.90;;;5.32;75.84;98231.31;4857465;28;20530;-82
2022/02/19 02:45:08;;;;;;;10.53;1.30;;;;;;;5.29;75.92;98255.81;4842602;28;20099;-83
2022/02/19 02:47:36;;;;;;;9.95;1.27;;;6.70;99.90;;;5.27;76.58;98220.31;4866264;28;20129;-82
2022/02/19 02:50:10;;;;;;;9.07;1.88;;;6.90;99.90;;;5.24;77.16;98254.44;4854914;28;20107;-82
2022/02/19 02:52:39;;;;;;;6.72;0.88;;;6.80;99.90;;;5.21;77.85;98244.22;4856903;28;20066;-83
2022/02/19 02:55:14;;;;;;;21.35;1.67;;;6.80;99.90;;;5.17;78.28;98240.13;4836130;28;20416;-83
2022/02/19 02:57:41;;;;;;;8.18;1.58;;;6.80;99.90;;;5.14;78.02;98249.81;4848597;28;20076;-81
2022/02/19 03:00:18;;;;;;;11.07;1.40;;;6.70;99.90;;;5.12;77.76;98256.91;4843416;28;21051;-85
2022/02/19 03:02:44;;;;;;;7.50;1.10;;;6.70;99.90;;;5.12;78.25;98248.25;4866292;28;20181;-83
2022/02/19 03:05:21;;;;;;;7.65;1.05;;;6.70;99.90;;;5.15;78.23;98245.44;4929614;28;20042;-86
2022/02/19 03:07:47;;;;;;;8.75;1.40;;;6.70;99.90;;;5.13;78.49;98265.56;4842991;28;20042;-83
2022/02/19 03:10:16;;;;;;;9.93;1.45;;;6.70;99.90;;;5.10;78.75;98258.78;4867295;28;20118;-85
2022/02/19 03:12:48;;;;;;;8.23;1.40;;;6.70;99.90;;;5.04;79.05;98287.84;4870052;28;20026;-83
2022/02/19 03:15:18;;;;;;;9.10;1.60;;;6.70;99.90;;;5.01;79.98;98281.97;4935898;28;20510;-84
2022/02/19 03:17:51;;;;;;;9.30;1.45;;;6.60;99.90;;;4.92;80.63;98283.38;4863804;28;20039;-84
2022/02/19 03:20:33;;;;;;;11.20;1.85;;;6.60;99.90;;;4.89;81.38;98283.59;4837761;28;20050;-85
2022/02/19 03:23:00;;;;;;;9.45;1.63;;;6.50;99.90;;;4.79;81.82;98292.91;4893208;28;20134;-85
2022/02/19 03:25:27;;;;;;;7.68;1.08;;;6.40;99.90;;;4.75;82.93;98304.44;4832446;28;20033;-86
2022/02/19 03:28:02;;;;;;;16.30;2.55;;;;;;;4.71;83.49;98288.19;4849129;28;20035;-85
2022/02/19 03:30:28;;;;;;;10.73;1.60;;;6.40;99.90;;;4.62;84.70;98312.19;4919534;28;20051;-84
2022/02/19 03:32:54;;;;;;;9.00;1.08;;;6.30;99.90;;;4.47;85.85;98312.19;4865409;28;20039;-83
2022/02/19 03:35:29;;;;;;;4.53;1.10;;;6.20;99.90;;;4.38;86.66;98310.13;4848978;28;20728;-84
2022/02/19 03:37:58;;;;;;;7.85;1.30;;;6.10;99.90;;;4.34;87.62;98276.53;4879124;28;20453;-83
2022/02/19 03:40:34;;;;;;;4.53;1.17;;;;;;;4.26;88.38;98322.13;4850591;28;20595;-85
2022/02/19 03:43:01;;;;;;;24.02;2.15;;;;;;;4.18;88.90;98318.28;4875622;28;20032;-83
2022/02/19 03:45:37;;;;;;;6.00;1.00;;;5.90;99.90;;;4.13;89.45;98295.13;4859268;28;20034;-84
2022/02/19 03:48:03;;;;;;;8.50;1.10;;;5.80;99.90;;;4.10;89.67;98308.31;4882414;28;20037;-83
2022/02/19 03:50:29;;;;;;;5.90;1.10;;;5.80;99.90;;;4.03;90.57;98289.59;4861233;28;20026;-82
2022/02/19 03:53:04;;;;;;;8.93;1.35;;;5.70;99.90;;;3.99;91.38;98293.31;4833918;28;20586;-83
2022/02/19 03:55:31;;;;;;;8.18;1.00;;;5.70;99.90;;;3.96;91.98;98311.72;4852610;28;20495;-83
2022/02/19 03:57:58;;;;;;;4.70;1.02;;;;;;;3.94;92.47;98317.97;4854079;28;20186;-83
2022/02/19 04:00:31;;;;;;;9.27;1.20;;;5.60;99.90;;;3.92;92.77;98317.22;4873887;28;20035;-83
2022/02/19 04:02:57;;;;;;;6.13;0.90;;;5.60;99.90;;;3.89;93.10;98302.63;4851721;28;20044;-84
2022/02/19 04:05:23;;;;;;;2.97;0.60;;;5.60;99.90;;;3.90;93.45;98336.34;4896084;28;25817;-84
2022/02/19 04:07:49;;;;;;;3.88;0.70;;;5.60;99.90;;;3.90;93.22;98312.91;4843992;28;20043;-83
2022/02/19 04:10:15;;;;;;;5.65;0.57;;;5.60;99.90;;;3.88;93.06;98332.16;4838786;28;20042;-84
2022/02/19 04:12:50;;;;;;;5.30;0.63;;;5.50;99.90;;;3.83;93.27;98321.19;4862479;28;20570;-83
2022/02/19 04:15:16;;;;;;;14.23;0.98;;;5.60;99.90;;;3.85;93.81;98359.22;4854886;28;20039;-83
2022/02/19 04:17:42;;;;;;;4.63;0.68;;;;;;;3.76;94.78;98354.53;4867170;28;20055;-85
2022/02/19 04:20:15;;;;;;;7.78;0.90;;;5.50;99.90;;;3.67;96.46;98361.09;4876974;28;20057;-83
2022/02/19 04:22:42;;;;;;;2.35;0.70;;;5.40;99.90;;;3.51;97.63;98378.47;4856175;28;20109;-83
2022/02/19 04:25:09;;;;;;;4.72;0.93;;;5.30;99.90;;;3.36;98.55;98372.34;4858888;28;20034;-82
2022/02/19 04:27:35;;;;;;;5.05;0.65;;;5.20;99.90;;;3.34;99.52;98378.56;4888179;23;20038;-83
2022/02/19 04:30:11;;;;;;;9.02;0.90;;;5.10;99.90;;;3.29;100.00;98389.22;4862295;28;20123;-84
2022/02/19 04:32:37;;;;;;;6.35;0.85;;;5.00;99.90;;;3.25;100.00;98385.09;4860570;28;20039;-83
2022/02/19 04:35:12;;;;;;;5.93;0.75;;;5.00;99.90;;;3.27;100.00;98386.69;4845700;28;20507;-83
2022/02/19 04:37:40;;;;;;;3.85;0.70;;;;;;;3.28;100.00;98392.72;4842930;28;20046;-82
2022/02/19 04:40:15;;;;;;;4.97;0.80;;;5.00;99.90;;;3.25;100.00;98406.75;4843730;28;20035;-84
2022/02/19 04:42:42;;;;;;;7.27;1.17;;;4.90;99.90;;;3.28;100.00;98410.94;4846623;28;20566;-83
2022/02/19 04:45:11;;;;;;;6.15;0.98;;;5.00;99.90;;;3.25;100.00;98447.53;4842912;28;20264;-84
2022/02/19 04:47:46;;;;;;;10.98;0.90;;;5.00;99.90;;;3.22;100.00;98451.13;4852736;28;20030;-85
2022/02/19 04:50:12;;;;;;;7.63;0.95;;;4.90;99.90;;;3.26;100.00;98446.59;4909335;28;20059;-89
2022/02/19 04:52:39;;;;;;;6.38;0.90;;;5.00;99.90;;;3.29;100.00;98449.06;4849436;28;20026;-83
2022/02/19 04:55:14;;;;;;;10.35;1.20;;;5.00;99.90;;;3.33;100.00;98470.53;4853945;28;20070;-87
2022/02/19 04:57:44;;;;;;;5.93;1.13;;;5.00;99.90;;;3.36;100.00;98484.22;4831259;29;20064;-83
2022/02/19 05:00:20;;;;;;;11.48;1.20;;;5.00;99.90;;;3.39;100.00;98497.06;4825315;28;20036;-83
2022/02/19 05:02:45;;;;;;;8.63;1.13;;;5.00;99.90;;;3.32;100.00;98481.84;4859706;28;20027;-84
2022/02/19 05:05:20;;;;;;;5.20;0.45;;;5.00;99.90;;;3.27;100.00;98511.53;4824759;28;20059;-83
2022/02/19 05:07:46;;;;;;;3.15;0.60;;;5.00;99.90;;;3.24;100.00;98510.84;4830493;28;20050;-83
2022/02/19 05:10:13;;;;;;;4.32;0.60;;;4.90;99.90;;;3.18;100.00;98525.03;4890199;28;20118;-84
2022/02/19 05:12:41;;;;;;;6.45;0.47;;;4.90;99.90;;;3.15;100.00;98529.53;4908975;28;20099;-84
2022/02/19 05:15:12;;;;;;;3.67;0.80;;;4.90;99.90;;;3.17;100.00;98543.31;4831899;28;20503;-83
2022/02/19 05:18:08;;;;;;;11.07;1.05;;;4.90;99.90;;;3.16;100.00;98547.69;4829280;29;20663;-83
2022/02/19 05:20:34;;;;;;;9.00;0.82;;;4.90;99.90;;;3.18;100.00;98556.25;4795930;29;20038;-85
2022/02/19 05:23:00;;;;;;;8.45;0.80;;;4.90;99.90;;;3.24;100.00;98571.53;4830817;29;20047;-84
2022/02/19 05:25:26;;;;;;;5.53;0.80;;;4.90;99.90;;;3.31;100.00;98595.47;4841706;28;20054;-84
2022/02/19 05:28:02;;;;;;;13.55;1.63;;;;;;;3.36;99.94;98593.47;4848055;28;20042;-83
2022/02/19 05:30:28;;;;;;;11.82;1.42;;;4.90;99.90;;;3.40;99.78;98622.78;4868710;28;20040;-83
2022/02/19 05:32:53;;;;;;;9.05;1.20;;;5.00;99.90;;;3.44;98.85;98606.94;4862272;28;20030;-85
2022/02/19 05:35:28;;;;;;;12.05;1.38;;;5.10;99.90;;;3.47;98.35;98645.78;4866767;28;20495;-82
2022/02/19 05:37:55;;;;;;;9.63;1.00;;;5.10;99.90;;;3.46;97.89;98631.13;4859577;28;20059;-83
2022/02/19 05:40:21;;;;;;;14.57;1.60;;;5.10;99.90;;;3.54;97.75;98671.50;4843250;28;20115;-82
2022/02/19 05:42:47;;;;;;;8.98;1.27;;;5.20;99.90;;;3.58;97.60;98665.22;4886701;28;20031;-83
2022/02/19 05:45:21;;;;;;;10.85;1.23;;;5.20;99.90;;;3.61;97.16;98678.94;4846655;28;20040;-83
2022/02/19 05:47:47;;;;;;;9.55;0.90;;;5.20;99.90;;;3.62;96.86;98701.44;4850231;28;20044;-83
2022/02/19 05:50:14;;;;;;;8.90;1.30;;;5.20;99.90;;;3.62;97.03;98706.63;4850224;28;20131;-83
2022/02/19 05:52:45;;;;;;;9.48;1.15;;;5.20;99.90;;;3.65;96.90;98706.50;4833202;28;20491;-84
2022/02/19 05:55:11;;;;;;;9.38;1.20;;;5.20;99.90;;;3.60;97.63;98728.44;4847583;28;20117;-84
2022/02/19 05:57:46;;;;;;;6.28;1.00;;;5.20;99.90;;;3.61;98.13;98735.34;4848479;28;20526;-83
2022/02/19 06:00:15;;;;;;;14.13;1.70;;;5.20;99.90;;;3.63;97.81;98752.56;4837699;28;20034;-82
2022/02/19 06:02:42;;;;;;;8.70;1.20;;;5.20;99.90;;;3.62;98.11;98763.06;4838513;28;20430;-82
2022/02/19 06:05:08;;;;;;;12.48;1.45;;;5.30;99.90;;;3.64;98.85;98758.63;4823263;28;20039;-84
2022/02/19 06:07:34;;;;;;;10.25;1.15;;;5.20;99.90;;;3.59;98.91;98771.88;4854718;28;20028;-83
2022/02/19 06:10:08;;;;;;;12.35;1.65;;;5.20;99.90;;;3.61;98.97;98797.81;4864081;28;20024;-83
2022/02/19 06:12:34;;;;;;;10.55;1.30;;;;;;;3.56;99.10;98808.44;4859441;28;20762;-83
2022/02/19 06:15:01;;;;;;;8.18;2.03;;;5.20;99.90;;;3.57;100.00;98827.50;4882113;28;20495;-82
2022/02/19 06:17:37;;;;;;;17.20;1.27;;;5.20;99.90;;;3.57;99.92;98833.56;4861895;28;20352;-83
2022/02/19 06:20:04;;;;;;;;;;;5.20;99.90;;;3.46;100.00;98861.84;4860463;28;20045;-84
2022/02/19 06:22:30;;;;;;;;;;;5.00;99.90;;;3.28;100.00;98887.81;4850216;28;19914;-82
2022/02/19 06:25:04;;;;;;;;;;;5.00;99.90;;;3.11;100.00;98899.88;4828856;28;19906;-80
2022/02/19 06:27:30;;;;;;;14.75;1.77;;;4.90;99.90;;;3.15;100.00;98919.63;4874952;23;19929;-83
2022/02/19 06:29:58;;;;;;;15.57;1.50;;;4.80;99.90;;;2.99;100.00;98925.53;4885729;28;20118;-83
2022/02/19 06:32:50;;;;;;;11.70;1.67;;;4.70;99.90;;;2.92;100.00;98928.47;4883229;28;20070;-89
2022/02/19 06:36:23;;;;;;;7.95;0.95;;;4.60;99.90;;;2.82;100.00;98951.41;4905896;28;20118;-89
2022/02/19 06:38:58;;;;;;;10.60;1.17;;;4.60;99.90;;;2.84;100.00;98960.00;4804096;29;20055;-81
2022/02/19 06:41:24;;;;;;;10.35;1.13;;;4.50;99.90;;;2.88;100.00;98979.75;4829802;28;20400;-83
2022/02/19 06:43:50;;;;;;;11.60;1.42;;;4.60;99.90;;;2.92;100.00;98986.50;4838334;28;20051;-85
2022/02/19 06:46:25;;;;;;;13.70;1.30;;;4.50;99.90;;;2.98;100.00;98985.38;4840538;28;20027;-84
2022/02/19 06:48:51;;;;;;;22.02;2.30;;;4.60;99.90;;;3.01;100.00;98986.09;4859949;28;20180;-82
2022/02/19 06:51:17;;;;;;;11.00;1.58;;;4.60;99.90;;;3.04;100.00;98998.13;4871716;28;20427;-82
2022/02/19 06:53:43;;;;;;;8.48;1.27;;;4.60;99.90;;;3.03;100.00;99025.88;4842871;28;20023;-82
2022/02/19 06:56:16;;;;;;;10.80;1.42;;;4.60;99.90;;;3.04;100.00;99022.38;4873533;28;20034;-83
2022/02/19 06:58:42;;;;;;;16.20;1.50;;;4.60;99.90;;;3.02;100.00;99033.75;4852200;28;20047;-83
2022/02/19 07:01:08;;;;;;;20.83;2.05;;;4.60;99.90;;;3.07;100.00;99027.44;4841159;29;20086;-82
2022/02/19 07:03:34;;;;;;;13.18;1.90;;;4.70;99.90;;;3.15;100.00;99049.69;4850770;28;20032;-84
2022/02/19 07:06:09;;;;;;;13.13;1.10;;;4.70;99.90;;;3.23;100.00;99055.41;4858255;28;20037;-82
2022/02/19 07:08:35;;;;;;;9.88;1.35;;;4.80;99.90;;;3.29;100.00;99060.34;4879957;28;20412;-82
2022/02/19 07:11:01;;;;;;;10.80;1.40;;;4.80;99.90;;;3.32;100.00;99081.00;4858815;28;20066;-82
2022/02/19 07:13:27;;;;;;;10.80;1.02;;;4.90;99.90;;;3.36;100.00;99092.97;4850976;28;20042;-83
2022/02/19 07:16:02;;;;;;;10.85;1.20;;;;;;;3.38;100.00;99098.13;4876589;28;20030;-83
2022/02/19 07:18:29;;;;;;;13.60;1.60;;;4.90;99.90;;;3.46;100.00;99122.06;4889509;28;20049;-83
2022/02/19 07:20:55;;;;;;;9.55;1.50;;;5.00;99.90;;;3.47;100.00;99126.34;4878194;28;20023;-82
2022/02/19 07:23:26;;;;;;;11.68;2.17;;;5.00;99.90;;;3.51;100.00;99138.31;4839235;28;20070;-83
2022/02/19 07:25:52;;;;;;;11.65;1.52;;;5.00;99.90;;;3.50;100.00;99136.63;4839866;28;20415;-81
2022/02/19 07:28:19;;;;;;;4.75;1.00;;;5.10;99.90;;;3.51;100.00;99166.94;4853825;28;20047;-81
2022/02/19 07:30:45;;;;;;;5.30;0.90;;;5.10;99.90;;;3.47;100.00;99202.66;4838753;28;20030;-82
2022/02/19 07:33:11;;;;;;;10.27;1.55;;;5.10;99.90;;;3.55;100.00;99191.09;4837233;28;20037;-81
2022/02/19 07:35:43;;;;;;;7.40;1.27;;;5.10;99.90;;;3.58;100.00;99194.38;4852611;28;20038;-82
2022/02/19 07:38:09;;;;;;;12.10;1.48;;;;;;;3.55;100.00;99207.53;4852686;28;20939;-82
2022/02/19 07:40:35;;;;;;;11.32;1.40;;;5.20;99.90;;;3.67;100.00;99216.56;4864550;28;20043;-84
2022/02/19 07:43:01;;;;;;;11.48;1.33;;;5.20;99.90;;;3.76;100.00;99229.22;4850629;28;20392;-84
2022/02/19 07:45:27;;;;;;;12.38;1.33;;;5.20;99.90;;;3.79;100.00;99238.66;4845633;28;20027;-82
2022/02/19 07:47:58;;;;;;;12.02;1.35;;;5.30;99.90;;;3.90;100.00;99247.69;4882797;28;20038;-82
2022/02/19 07:58:47;;;;;;;7.60;0.90;;;5.70;99.90;;;4.59;96.78;99272.47;4883958;28;20046;-83
2022/02/19 08:01:19;;;;;;;7.13;1.15;;;5.90;99.90;;;4.97;95.23;99287.25;4867933;28;20050;-81
2022/02/19 08:03:45;;;;;;;13.30;1.45;;;6.00;99.90;;;4.68;95.27;99298.13;4860163;28;20130;-83
2022/02/19 08:06:11;;;;;;;17.02;1.85;;;6.00;99.90;;;4.54;96.00;99307.50;4852593;28;20093;-83
2022/02/19 08:08:38;;;;;;;22.92;1.52;;;6.00;99.90;;;4.41;96.22;99307.19;4860459;28;20629;-81
2022/02/19 08:11:12;;;;;;;15.30;1.80;;;5.90;99.90;;;4.42;96.20;99316.69;4878692;28;20034;-81
2022/02/19 08:13:38;;;;;;;8.27;1.17;;;5.00;99.90;;;4.77;96.15;99338.59;4876339;28;20054;-82
2022/02/19 08:16:08;;;;;;;4.47;0.90;;;6.10;99.90;;;5.68;94.91;99326.53;4846612;28;20062;-84
2022/02/19 08:18:43;;;;;;;14.65;1.23;;;6.40;99.90;;;5.68;92.29;99326.53;4852952;28;20047;-81
2022/02/19 08:21:23;;;;;;;11.95;1.23;;;6.60;99.90;;;5.73;91.00;99327.16;4858104;28;20041;-83
2022/02/19 08:24:00;;;;;;;8.02;1.10;;;6.80;99.90;;;5.87;89.93;99342.97;4894580;28;20072;-81
2022/02/19 08:26:27;;;;;;;10.45;2.60;;;6.90;99.90;;;5.73;89.87;99371.56;4867259;28;20042;-86
2022/02/19 08:28:54;;;;;;;6.07;1.05;;;7.00;99.90;;;5.79;90.34;99388.69;4841432;28;21666;-83
2022/02/19 08:31:28;;;;;;;8.98;1.33;;;7.00;99.90;;;5.78;89.77;99397.44;4864162;28;20026;-82
2022/02/19 08:33:54;;;;;;;12.23;1.35;;;7.10;99.90;;;6.47;89.48;99399.31;4861526;28;20047;-81
2022/02/19 08:36:20;;;;;;;11.68;1.80;;;7.50;99.90;;;7.74;86.13;99395.13;4857802;28;20046;-83
2022/02/19 08:38:46;;;;;;;7.88;1.25;;;8.20;99.90;;;7.99;82.28;99404.19;4872658;28;20047;-83
2022/02/19 08:41:21;;;;;;;12.25;1.58;;;8.30;99.90;;;7.31;81.33;99443.78;4953369;28;20039;-84
2022/02/19 08:43:47;;;;;;;9.35;1.48;;;8.20;99.90;;;6.94;82.10;99425.63;4869093;28;20019;-85
2022/02/19 08:46:13;;;;;;;18.10;2.15;;;8.20;99.90;;;6.98;82.97;99432.38;4855985;28;20062;-85
2022/02/19 08:48:48;;;;;;;19.85;1.83;;;8.30;99.90;;;7.50;81.19;99435.78;4860267;28;20113;-85
2022/02/19 08:51:15;;;;;;;11.45;1.45;;;;;;;6.91;81.28;99451.97;4863254;28;20031;-87
2022/02/19 08:53:43;;;;;;;13.45;1.90;;;8.10;99.90;;;6.66;82.20;99483.75;4873816;28;20120;-85
2022/02/19 08:56:14;;;;;;;16.85;1.73;;;8.00;99.90;;;6.53;83.82;99493.16;4856167;28;20083;-84
2022/02/19 08:58:45;;;;;;;13.82;1.83;;;;;;;6.31;84.32;99519.50;4869826;28;20101;-85
2022/02/19 09:01:11;;;;;;;18.33;2.28;;;7.70;99.90;;;6.31;84.69;99525.56;4868843;28;20031;-85
2022/02/19 09:03:43;;;;;;;12.18;1.77;;;7.60;99.90;;;6.33;85.60;99525.50;4856350;28;20028;-85
2022/02/19 09:06:09;;;;;;;6.57;1.02;;;7.80;99.90;;;6.64;84.81;99534.47;4848982;28;20045;-85
2022/02/19 09:08:36;;;;;;;10.27;1.60;;;7.80;99.90;;;6.32;84.63;99544.72;4852447;28;20039;-84
2022/02/19 09:11:02;;;;;;;7.18;1.13;;;7.60;99.90;;;6.15;84.93;99543.75;4863699;28;20036;-83
2022/02/19 09:13:40;;;;;;;6.53;1.00;;;7.50;99.90;;;5.97;85.43;99564.66;4871117;28;20624;-84
2022/02/19 09:16:16;;;;;;;7.45;1.38;;;7.40;99.90;;;5.90;86.44;99582.38;4903628;28;20030;-83
2022/02/19 09:18:44;;;;;;;10.00;1.20;;;7.20;99.90;;;5.63;85.98;99580.06;4863765;28;20038;-84
2022/02/19 09:21:10;;;;;;;8.68;1.40;;;7.20;99.90;;;5.55;87.86;99577.81;4854168;28;20023;-84
2022/02/19 09:23:42;;;;;;;13.80;1.40;;;7.10;99.90;;;5.61;88.33;99591.50;4885568;28;20043;-85
2022/02/19 09:26:08;;;;;;;11.68;1.67;;;7.10;99.90;;;5.66;88.16;99605.19;4842002;28;20043;-84
2022/02/19 09:28:35;;;;;;;7.35;1.27;;;7.00;99.90;;;5.73;87.60;99622.31;4838282;28;20047;-84
2022/02/19 09:31:11;;;;;;;14.90;2.15;;;7.10;99.90;;;5.73;87.85;99627.53;4879459;28;20031;-85
2022/02/19 09:33:40;;;;;;;;;;;7.10;99.90;;;5.70;87.95;99644.19;4859655;28;20136;-86
2022/02/19 09:36:17;;;;;;;12.63;1.67;;;7.10;99.90;;;5.73;87.69;99644.03;4860773;28;19914;-85
2022/02/19 09:38:47;;;;;;;6.72;1.30;;;7.10;99.90;;;5.63;87.60;99652.34;4882687;28;20070;-85
2022/02/19 09:41:22;;;;;;;15.50;2.00;;;7.10;99.90;;;5.58;88.27;99651.69;4896531;28;20028;-84
2022/02/19 09:44:02;;;;;;;9.02;1.40;;;;;;;5.75;88.33;99659.66;4889153;28;20553;-84
2022/02/19 09:46:40;;;;;;;12.98;1.58;;;7.20;99.90;;;5.97;87.95;99671.81;4850705;28;20043;-85
2022/02/19 09:49:08;;;;;;;8.95;1.20;;;7.20;99.90;;;5.87;86.98;99666.94;4871210;28;20021;-84
2022/02/19 09:51:41;;;;;;;19.80;2.25;;;7.20;99.90;;;5.81;87.37;99688.13;4852539;28;20217;-85
2022/02/19 09:54:07;;;;;;;23.10;2.10;;;7.20;99.90;;;5.73;88.50;99691.06;4876923;28;20491;-83
2022/02/19 09:56:36;;;;;;;10.98;1.35;;;7.20;99.90;;;5.88;88.38;99699.16;4877306;28;20039;-84
2022/02/19 09:59:06;;;;;;;20.15;2.28;;;;;;;5.88;87.86;99715.66;4850055;28;20530;-84
2022/02/19 10:01:35;;;;;;;19.58;2.15;;;7.20;99.90;;;5.88;87.62;99725.28;4863215;28;20034;-84
2022/02/19 10:04:06;;;;;;;14.00;2.60;;;;;;;6.21;86.94;99724.75;4883944;28;20506;-84
2022/02/19 10:06:42;;;;;;;16.70;2.00;;;7.40;99.90;;;6.30;86.04;99727.78;4885946;28;20411;-85
2022/02/19 10:09:10;;;;;;;16.50;2.28;;;7.50;99.90;;;6.28;85.28;99732.22;4872093;28;20057;-86
2022/02/19 10:11:47;;;;;;;12.90;1.60;;;7.60;99.90;;;6.14;85.38;99745.06;4897831;28;20109;-83
2022/02/19 10:14:41;;;;;;;10.95;1.40;;;7.40;99.90;;;6.01;86.05;99762.22;4871570;28;20058;-85
2022/02/19 10:17:18;;;;;;;16.33;2.05;;;7.50;99.90;;;6.09;87.10;99781.00;4851437;28;20039;-85
2022/02/19 10:20:00;;;;;;;13.43;1.63;;;7.50;99.90;;;6.06;87.29;99770.69;4870410;28;20051;-84
2022/02/19 10:22:41;;;;;;;10.68;1.52;;;7.50;99.90;;;6.07;86.91;99798.50;4876923;28;20027;-84
2022/02/19 10:25:21;;;;;;;8.85;1.35;;;7.50;99.90;;;6.10;86.93;99808.84;4892659;28;20034;-83
2022/02/19 10:28:04;;;;;;;14.48;1.60;;;7.40;99.90;;;6.11;86.51;99815.75;4865637;28;20062;-84
2022/02/19 10:30:31;;;;;;;9.15;1.27;;;7.50;99.90;;;6.24;86.19;99810.84;4938673;28;20121;-84
2022/02/19 10:33:07;;;;;;;8.27;1.35;;;7.60;99.90;;;6.34;85.22;99836.53;4876633;28;20043;-83
2022/02/19 10:35:45;;;;;;;;;;;7.70;99.90;;;6.47;84.51;99828.16;4880991;28;20023;-84
2022/02/19 10:38:18;;;;;;;11.48;1.20;;;7.70;99.90;;;6.56;84.04;99861.75;4883086;28;19950;-82
2022/02/19 10:40:52;;;;;;;10.57;1.10;;;;;;;6.34;84.50;99856.63;4853062;28;20059;-87
2022/02/19 10:43:31;;;;;;;18.83;2.15;;;7.60;99.90;;;6.18;84.26;99869.50;4859262;28;20489;-85
2022/02/19 10:46:11;;;;;;;8.30;1.80;;;7.60;99.90;;;6.21;84.63;99863.28;4904779;28;20050;-86
2022/02/19 10:48:38;;;;;;;9.05;2.72;;;7.60;99.90;;;6.21;85.13;99885.03;4867466;29;20044;-86
2022/02/19 10:51:31;;;;;;;6.78;0.90;;;7.60;99.90;;;6.29;86.13;99892.56;4916565;28;20038;-87
2022/02/19 10:53:59;;;;;;;7.07;0.90;;;7.60;99.90;;;6.24;86.53;99903.22;4905419;28;20046;-87
2022/02/19 10:56:35;;;;;;;10.00;1.55;;;7.60;99.90;;;6.12;86.59;99906.34;4903431;28;20033;-84